sensor_id;sensor_type;location;lat;lon;timestamp;P1;durP1;ratioP1;P2;durP2;ratioP2
71655;SDS011;59497;48.798;8.816;2023-07-24T00:02:16;10.55;;;5.05;;
71655;SDS011;59497;48.798;8.816;2023-07-24T00:04:41;7.95;;;4.55;;
71655;SDS011;59497;48.798;8.816;2023-07-24T00:07:06;9.77;;;5.13;;
71655;SDS011;59497;48.798;8.816;2023-07-24T00:09:31;9.60;;;4.30;;
71655;SDS011;59497;48.798;8.816;2023-07-24T00:11:57;7.57;;;4.23;;
71655;SDS011;59497;48.798;8.816;2023-07-24T00:14:22;8.07;;;4.53;;
71655;SDS011;59497;48.798;8.816;2023-07-24T00:16:47;10.23;;;5.17;;
71655;SDS011;59497;48.798;8.816;2023-07-24T00:19:12;8.60;;;4.67;;
71655;SDS011;59497;48.798;8.816;2023-07-24T00:21:37;8.50;;;4.57;;
71655;SDS011;59497;48.798;8.816;2023-07-24T00:24:03;9.30;;;4.87;;
71655;SDS011;59497;48.798;8.816;2023-07-24T00:26:28;7.83;;;4.53;;
71655;SDS011;59497;48.798;8.816;2023-07-24T00:28:53;9.17;;;5.07;;
71655;SDS011;59497;48.798;8.816;2023-07-24T00:31:18;8.67;;;5.03;;
71655;SDS011;59497;48.798;8.816;2023-07-24T00:33:43;8.37;;;4.90;;
71655;SDS011;59497;48.798;8.816;2023-07-24T00:36:09;8.53;;;5.13;;
71655;SDS011;59497;48.798;8.816;2023-07-24T00:38:34;10.17;;;5.37;;
71655;SDS011;59497;48.798;8.816;2023-07-24T00:40:59;9.33;;;4.87;;
71655;SDS011;59497;48.798;8.816;2023-07-24T00:43:24;10.70;;;5.13;;
71655;SDS011;59497;48.798;8.816;2023-07-24T00:45:50;10.13;;;5.27;;
71655;SDS011;59497;48.798;8.816;2023-07-24T00:48:15;9.73;;;4.93;;
71655;SDS011;59497;48.798;8.816;2023-07-24T00:50:41;7.87;;;5.10;;
71655;SDS011;59497;48.798;8.816;2023-07-24T00:53:07;9.00;;;5.10;;
71655;SDS011;59497;48.798;8.816;2023-07-24T00:55:32;9.03;;;4.53;;
71655;SDS011;59497;48.798;8.816;2023-07-24T00:57:57;10.30;;;4.60;;
71655;SDS011;59497;48.798;8.816;2023-07-24T01:00:23;8.07;;;4.90;;
71655;SDS011;59497;48.798;8.816;2023-07-24T01:02:48;9.03;;;5.07;;
71655;SDS011;59497;48.798;8.816;2023-07-24T01:05:13;7.97;;;4.77;;
71655;SDS011;59497;48.798;8.816;2023-07-24T01:07:39;8.35;;;4.70;;
71655;SDS011;59497;48.798;8.816;2023-07-24T01:10:05;9.17;;;4.90;;
71655;SDS011;59497;48.798;8.816;2023-07-24T01:12:35;7.30;;;4.57;;
71655;SDS011;59497;48.798;8.816;2023-07-24T01:15:12;7.70;;;4.10;;
71655;SDS011;59497;48.798;8.816;2023-07-24T01:17:52;7.72;;;4.40;;
71655;SDS011;59497;48.798;8.816;2023-07-24T01:20:20;10.07;;;5.00;;
71655;SDS011;59497;48.798;8.816;2023-07-24T01:25:34;8.52;;;5.05;;
71655;SDS011;59497;48.798;8.816;2023-07-24T01:28:00;7.77;;;4.83;;
71655;SDS011;59497;48.798;8.816;2023-07-24T01:30:26;9.88;;;5.13;;
71655;SDS011;59497;48.798;8.816;2023-07-24T01:32:51;9.00;;;4.80;;
71655;SDS011;59497;48.798;8.816;2023-07-24T01:35:16;8.77;;;5.00;;
71655;SDS011;59497;48.798;8.816;2023-07-24T01:37:41;8.63;;;4.70;;
71655;SDS011;59497;48.798;8.816;2023-07-24T01:40:07;7.57;;;4.53;;
71655;SDS011;59497;48.798;8.816;2023-07-24T01:42:33;8.50;;;4.40;;
71655;SDS011;59497;48.798;8.816;2023-07-24T01:44:58;10.10;;;5.27;;
71655;SDS011;59497;48.798;8.816;2023-07-24T01:47:24;7.33;;;4.63;;
71655;SDS011;59497;48.798;8.816;2023-07-24T01:49:49;8.47;;;4.80;;
71655;SDS011;59497;48.798;8.816;2023-07-24T01:52:15;7.70;;;4.73;;
71655;SDS011;59497;48.798;8.816;2023-07-24T01:54:40;10.88;;;5.53;;
71655;SDS011;59497;48.798;8.816;2023-07-24T01:57:06;9.20;;;4.50;;
71655;SDS011;59497;48.798;8.816;2023-07-24T01:59:31;10.73;;;5.00;;
71655;SDS011;59497;48.798;8.816;2023-07-24T02:01:56;8.47;;;4.33;;
71655;SDS011;59497;48.798;8.816;2023-07-24T02:04:21;10.03;;;4.83;;
71655;SDS011;59497;48.798;8.816;2023-07-24T02:06:50;9.57;;;4.57;;
71655;SDS011;59497;48.798;8.816;2023-07-24T02:09:17;11.20;;;4.80;;
71655;SDS011;59497;48.798;8.816;2023-07-24T02:11:42;9.37;;;5.43;;
71655;SDS011;59497;48.798;8.816;2023-07-24T02:14:07;10.37;;;5.70;;
71655;SDS011;59497;48.798;8.816;2023-07-24T02:16:32;8.83;;;5.33;;
71655;SDS011;59497;48.798;8.816;2023-07-24T02:18:57;8.07;;;4.97;;
71655;SDS011;59497;48.798;8.816;2023-07-24T02:21:23;10.03;;;5.10;;
71655;SDS011;59497;48.798;8.816;2023-07-24T02:23:48;10.73;;;5.33;;
71655;SDS011;59497;48.798;8.816;2023-07-24T02:26:13;9.03;;;4.93;;
71655;SDS011;59497;48.798;8.816;2023-07-24T02:28:38;8.13;;;4.80;;
71655;SDS011;59497;48.798;8.816;2023-07-24T02:31:03;8.47;;;4.47;;
71655;SDS011;59497;48.798;8.816;2023-07-24T02:33:29;7.53;;;4.57;;
71655;SDS011;59497;48.798;8.816;2023-07-24T02:35:54;8.27;;;4.70;;
71655;SDS011;59497;48.798;8.816;2023-07-24T02:38:19;8.87;;;4.70;;
71655;SDS011;59497;48.798;8.816;2023-07-24T02:40:44;9.60;;;5.07;;
71655;SDS011;59497;48.798;8.816;2023-07-24T02:43:09;8.90;;;5.03;;
71655;SDS011;59497;48.798;8.816;2023-07-24T02:45:35;9.40;;;5.10;;
71655;SDS011;59497;48.798;8.816;2023-07-24T02:48:00;8.63;;;5.47;;
71655;SDS011;59497;48.798;8.816;2023-07-24T02:50:26;9.18;;;4.88;;
71655;SDS011;59497;48.798;8.816;2023-07-24T02:52:52;7.20;;;4.30;;
71655;SDS011;59497;48.798;8.816;2023-07-24T02:55:17;9.47;;;5.07;;
71655;SDS011;59497;48.798;8.816;2023-07-24T02:57:42;8.38;;;5.35;;
71655;SDS011;59497;48.798;8.816;2023-07-24T03:00:07;8.03;;;4.77;;
71655;SDS011;59497;48.798;8.816;2023-07-24T03:02:33;10.43;;;5.03;;
71655;SDS011;59497;48.798;8.816;2023-07-24T03:04:58;9.53;;;4.93;;
71655;SDS011;59497;48.798;8.816;2023-07-24T03:07:23;7.83;;;4.07;;
71655;SDS011;59497;48.798;8.816;2023-07-24T03:09:50;10.93;;;4.82;;
71655;SDS011;59497;48.798;8.816;2023-07-24T03:12:15;11.45;;;4.97;;
71655;SDS011;59497;48.798;8.816;2023-07-24T03:14:41;8.63;;;4.87;;
71655;SDS011;59497;48.798;8.816;2023-07-24T03:17:06;10.17;;;4.37;;
71655;SDS011;59497;48.798;8.816;2023-07-24T03:19:31;11.73;;;4.73;;
71655;SDS011;59497;48.798;8.816;2023-07-24T03:21:56;10.23;;;4.97;;
71655;SDS011;59497;48.798;8.816;2023-07-24T03:24:21;9.33;;;4.57;;
71655;SDS011;59497;48.798;8.816;2023-07-24T03:26:47;8.63;;;4.40;;
71655;SDS011;59497;48.798;8.816;2023-07-24T03:29:12;9.83;;;4.83;;
71655;SDS011;59497;48.798;8.816;2023-07-24T03:31:37;7.30;;;4.87;;
71655;SDS011;59497;48.798;8.816;2023-07-24T03:34:02;8.73;;;5.03;;
71655;SDS011;59497;48.798;8.816;2023-07-24T03:36:27;11.73;;;5.40;;
71655;SDS011;59497;48.798;8.816;2023-07-24T03:38:53;8.33;;;5.10;;
71655;SDS011;59497;48.798;8.816;2023-07-24T03:41:18;7.77;;;4.53;;
71655;SDS011;59497;48.798;8.816;2023-07-24T03:43:43;9.73;;;4.53;;
71655;SDS011;59497;48.798;8.816;2023-07-24T03:46:08;10.47;;;4.73;;
71655;SDS011;59497;48.798;8.816;2023-07-24T03:48:33;9.40;;;5.27;;
71655;SDS011;59497;48.798;8.816;2023-07-24T03:51:00;11.10;;;5.55;;
71655;SDS011;59497;48.798;8.816;2023-07-24T03:53:25;10.77;;;5.57;;
71655;SDS011;59497;48.798;8.816;2023-07-24T03:55:50;10.00;;;4.63;;
71655;SDS011;59497;48.798;8.816;2023-07-24T03:58:15;9.70;;;4.83;;
71655;SDS011;59497;48.798;8.816;2023-07-24T04:00:41;11.07;;;5.60;;
71655;SDS011;59497;48.798;8.816;2023-07-24T04:03:06;10.10;;;5.67;;
71655;SDS011;59497;48.798;8.816;2023-07-24T04:05:31;8.47;;;4.27;;
71655;SDS011;59497;48.798;8.816;2023-07-24T04:07:56;9.83;;;4.67;;
71655;SDS011;59497;48.798;8.816;2023-07-24T04:10:21;8.40;;;4.87;;
71655;SDS011;59497;48.798;8.816;2023-07-24T04:12:47;7.40;;;4.63;;
71655;SDS011;59497;48.798;8.816;2023-07-24T04:15:12;10.83;;;5.27;;
71655;SDS011;59497;48.798;8.816;2023-07-24T04:17:37;10.43;;;5.27;;
71655;SDS011;59497;48.798;8.816;2023-07-24T04:20:04;9.60;;;5.43;;
71655;SDS011;59497;48.798;8.816;2023-07-24T04:22:29;10.93;;;4.88;;
71655;SDS011;59497;48.798;8.816;2023-07-24T04:24:54;16.80;;;6.37;;
71655;SDS011;59497;48.798;8.816;2023-07-24T04:27:20;11.03;;;4.87;;
71655;SDS011;59497;48.798;8.816;2023-07-24T04:29:45;9.83;;;5.37;;
71655;SDS011;59497;48.798;8.816;2023-07-24T04:32:10;11.30;;;5.50;;
71655;SDS011;59497;48.798;8.816;2023-07-24T04:34:35;9.17;;;4.90;;
71655;SDS011;59497;48.798;8.816;2023-07-24T04:37:00;9.30;;;4.70;;
71655;SDS011;59497;48.798;8.816;2023-07-24T04:39:25;7.93;;;4.50;;
71655;SDS011;59497;48.798;8.816;2023-07-24T04:41:51;9.70;;;4.70;;
71655;SDS011;59497;48.798;8.816;2023-07-24T04:44:16;10.10;;;6.50;;
71655;SDS011;59497;48.798;8.816;2023-07-24T04:46:41;9.67;;;5.90;;
71655;SDS011;59497;48.798;8.816;2023-07-24T04:49:06;11.50;;;5.07;;
71655;SDS011;59497;48.798;8.816;2023-07-24T04:51:31;11.67;;;5.43;;
71655;SDS011;59497;48.798;8.816;2023-07-24T04:53:57;10.20;;;5.43;;
71655;SDS011;59497;48.798;8.816;2023-07-24T04:56:22;9.90;;;5.50;;
71655;SDS011;59497;48.798;8.816;2023-07-24T04:58:47;10.87;;;5.47;;
71655;SDS011;59497;48.798;8.816;2023-07-24T05:01:12;9.67;;;4.63;;
71655;SDS011;59497;48.798;8.816;2023-07-24T05:03:37;10.67;;;5.27;;
71655;SDS011;59497;48.798;8.816;2023-07-24T05:06:03;8.82;;;4.85;;
71655;SDS011;59497;48.798;8.816;2023-07-24T05:08:28;10.53;;;5.13;;
71655;SDS011;59497;48.798;8.816;2023-07-24T05:10:56;12.03;;;5.70;;
71655;SDS011;59497;48.798;8.816;2023-07-24T05:13:22;10.77;;;5.37;;
71655;SDS011;59497;48.798;8.816;2023-07-24T05:15:47;10.77;;;5.40;;
71655;SDS011;59497;48.798;8.816;2023-07-24T05:18:12;9.70;;;5.47;;
71655;SDS011;59497;48.798;8.816;2023-07-24T05:20:37;8.87;;;4.80;;
71655;SDS011;59497;48.798;8.816;2023-07-24T05:23:02;9.27;;;5.30;;
71655;SDS011;59497;48.798;8.816;2023-07-24T05:25:28;9.03;;;5.00;;
71655;SDS011;59497;48.798;8.816;2023-07-24T05:27:53;11.03;;;5.37;;
71655;SDS011;59497;48.798;8.816;2023-07-24T05:30:18;10.27;;;5.30;;
71655;SDS011;59497;48.798;8.816;2023-07-24T05:32:43;10.37;;;5.30;;
71655;SDS011;59497;48.798;8.816;2023-07-24T05:35:08;9.63;;;5.17;;
71655;SDS011;59497;48.798;8.816;2023-07-24T05:37:33;9.77;;;5.63;;
71655;SDS011;59497;48.798;8.816;2023-07-24T05:39:59;8.70;;;4.93;;
71655;SDS011;59497;48.798;8.816;2023-07-24T05:42:24;9.87;;;4.83;;
71655;SDS011;59497;48.798;8.816;2023-07-24T05:44:49;10.23;;;5.07;;
71655;SDS011;59497;48.798;8.816;2023-07-24T05:47:14;10.07;;;5.07;;
71655;SDS011;59497;48.798;8.816;2023-07-24T05:49:39;10.53;;;5.13;;
71655;SDS011;59497;48.798;8.816;2023-07-24T05:52:05;9.80;;;5.57;;
71655;SDS011;59497;48.798;8.816;2023-07-24T05:54:30;10.27;;;5.57;;
71655;SDS011;59497;48.798;8.816;2023-07-24T05:56:55;9.37;;;5.37;;
71655;SDS011;59497;48.798;8.816;2023-07-24T05:59:20;10.70;;;5.50;;
71655;SDS011;59497;48.798;8.816;2023-07-24T06:01:45;9.10;;;4.93;;
71655;SDS011;59497;48.798;8.816;2023-07-24T06:04:11;10.50;;;5.63;;
71655;SDS011;59497;48.798;8.816;2023-07-24T06:06:36;9.30;;;5.30;;
71655;SDS011;59497;48.798;8.816;2023-07-24T06:09:01;9.30;;;5.57;;
71655;SDS011;59497;48.798;8.816;2023-07-24T06:11:28;10.65;;;5.70;;
71655;SDS011;59497;48.798;8.816;2023-07-24T06:13:53;9.63;;;4.93;;
71655;SDS011;59497;48.798;8.816;2023-07-24T06:16:18;15.32;;;5.78;;
71655;SDS011;59497;48.798;8.816;2023-07-24T06:18:43;11.53;;;5.10;;
71655;SDS011;59497;48.798;8.816;2023-07-24T06:21:09;16.07;;;5.50;;
71655;SDS011;59497;48.798;8.816;2023-07-24T06:23:34;11.80;;;5.70;;
71655;SDS011;59497;48.798;8.816;2023-07-24T06:25:59;10.83;;;5.57;;
71655;SDS011;59497;48.798;8.816;2023-07-24T06:28:24;10.77;;;5.82;;
71655;SDS011;59497;48.798;8.816;2023-07-24T06:30:51;9.17;;;5.33;;
71655;SDS011;59497;48.798;8.816;2023-07-24T06:33:16;10.32;;;5.57;;
71655;SDS011;59497;48.798;8.816;2023-07-24T06:35:42;8.70;;;5.37;;
71655;SDS011;59497;48.798;8.816;2023-07-24T06:38:07;9.40;;;6.03;;
71655;SDS011;59497;48.798;8.816;2023-07-24T06:40:33;8.75;;;5.20;;
71655;SDS011;59497;48.798;8.816;2023-07-24T06:42:58;9.07;;;5.47;;
71655;SDS011;59497;48.798;8.816;2023-07-24T06:45:24;9.80;;;5.77;;
71655;SDS011;59497;48.798;8.816;2023-07-24T06:47:49;9.73;;;5.27;;
71655;SDS011;59497;48.798;8.816;2023-07-24T06:50:14;10.87;;;5.40;;
71655;SDS011;59497;48.798;8.816;2023-07-24T06:52:39;8.90;;;5.37;;
71655;SDS011;59497;48.798;8.816;2023-07-24T06:55:05;11.17;;;5.80;;
71655;SDS011;59497;48.798;8.816;2023-07-24T06:57:30;9.73;;;5.57;;
71655;SDS011;59497;48.798;8.816;2023-07-24T06:59:55;9.37;;;5.43;;
71655;SDS011;59497;48.798;8.816;2023-07-24T07:02:20;8.83;;;5.00;;
71655;SDS011;59497;48.798;8.816;2023-07-24T07:04:45;10.30;;;6.23;;
71655;SDS011;59497;48.798;8.816;2023-07-24T07:07:11;9.13;;;5.67;;
71655;SDS011;59497;48.798;8.816;2023-07-24T07:09:36;10.77;;;6.30;;
71655;SDS011;59497;48.798;8.816;2023-07-24T07:12:01;8.97;;;5.63;;
71655;SDS011;59497;48.798;8.816;2023-07-24T07:14:26;11.83;;;5.60;;
71655;SDS011;59497;48.798;8.816;2023-07-24T07:16:51;10.73;;;6.00;;
71655;SDS011;59497;48.798;8.816;2023-07-24T07:19:16;10.83;;;6.20;;
71655;SDS011;59497;48.798;8.816;2023-07-24T07:21:42;9.43;;;5.53;;
71655;SDS011;59497;48.798;8.816;2023-07-24T07:24:07;8.67;;;5.10;;
71655;SDS011;59497;48.798;8.816;2023-07-24T07:26:32;10.17;;;5.33;;
71655;SDS011;59497;48.798;8.816;2023-07-24T07:28:58;11.13;;;5.63;;
71655;SDS011;59497;48.798;8.816;2023-07-24T07:31:23;9.13;;;5.33;;
71655;SDS011;59497;48.798;8.816;2023-07-24T07:33:48;10.73;;;5.70;;
71655;SDS011;59497;48.798;8.816;2023-07-24T07:36:13;10.50;;;5.53;;
71655;SDS011;59497;48.798;8.816;2023-07-24T07:38:39;10.87;;;5.47;;
71655;SDS011;59497;48.798;8.816;2023-07-24T07:41:05;9.33;;;6.40;;
71655;SDS011;59497;48.798;8.816;2023-07-24T07:43:30;10.23;;;5.68;;
71655;SDS011;59497;48.798;8.816;2023-07-24T07:45:55;10.27;;;6.13;;
71655;SDS011;59497;48.798;8.816;2023-07-24T07:48:21;10.13;;;5.97;;
71655;SDS011;59497;48.798;8.816;2023-07-24T07:50:49;9.73;;;4.93;;
71655;SDS011;59497;48.798;8.816;2023-07-24T07:53:14;10.63;;;6.03;;
71655;SDS011;59497;48.798;8.816;2023-07-24T07:55:40;10.60;;;5.43;;
71655;SDS011;59497;48.798;8.816;2023-07-24T07:58:05;9.33;;;4.93;;
71655;SDS011;59497;48.798;8.816;2023-07-24T08:00:30;7.60;;;4.67;;
71655;SDS011;59497;48.798;8.816;2023-07-24T08:02:55;9.27;;;5.90;;
71655;SDS011;59497;48.798;8.816;2023-07-24T08:05:20;9.37;;;5.37;;
71655;SDS011;59497;48.798;8.816;2023-07-24T08:07:45;9.20;;;5.10;;
71655;SDS011;59497;48.798;8.816;2023-07-24T08:10:11;10.70;;;5.77;;
71655;SDS011;59497;48.798;8.816;2023-07-24T08:12:36;10.00;;;5.60;;
71655;SDS011;59497;48.798;8.816;2023-07-24T08:15:01;9.23;;;5.10;;
71655;SDS011;59497;48.798;8.816;2023-07-24T08:17:26;8.50;;;5.50;;
71655;SDS011;59497;48.798;8.816;2023-07-24T08:19:51;7.30;;;4.90;;
71655;SDS011;59497;48.798;8.816;2023-07-24T08:22:17;8.47;;;5.23;;
71655;SDS011;59497;48.798;8.816;2023-07-24T08:24:44;8.63;;;4.90;;
71655;SDS011;59497;48.798;8.816;2023-07-24T08:27:09;9.13;;;4.70;;
71655;SDS011;59497;48.798;8.816;2023-07-24T08:29:35;8.67;;;4.73;;
71655;SDS011;59497;48.798;8.816;2023-07-24T08:32:01;9.48;;;4.93;;
71655;SDS011;59497;48.798;8.816;2023-07-24T08:34:26;8.63;;;5.30;;
71655;SDS011;59497;48.798;8.816;2023-07-24T08:36:51;8.67;;;5.00;;
71655;SDS011;59497;48.798;8.816;2023-07-24T08:39:17;9.43;;;5.47;;
71655;SDS011;59497;48.798;8.816;2023-07-24T08:41:42;7.57;;;5.37;;
71655;SDS011;59497;48.798;8.816;2023-07-24T08:44:07;7.70;;;5.00;;
71655;SDS011;59497;48.798;8.816;2023-07-24T08:46:39;9.70;;;5.40;;
71655;SDS011;59497;48.798;8.816;2023-07-24T08:49:06;8.10;;;5.20;;
71655;SDS011;59497;48.798;8.816;2023-07-24T08:51:31;6.63;;;5.00;;
71655;SDS011;59497;48.798;8.816;2023-07-24T08:53:57;9.10;;;4.67;;
71655;SDS011;59497;48.798;8.816;2023-07-24T08:56:23;8.45;;;4.82;;
71655;SDS011;59497;48.798;8.816;2023-07-24T08:58:48;8.10;;;4.80;;
71655;SDS011;59497;48.798;8.816;2023-07-24T09:01:13;6.73;;;4.60;;
71655;SDS011;59497;48.798;8.816;2023-07-24T09:03:39;8.20;;;4.50;;
71655;SDS011;59497;48.798;8.816;2023-07-24T09:06:04;7.50;;;4.30;;
71655;SDS011;59497;48.798;8.816;2023-07-24T09:08:30;8.43;;;4.47;;
71655;SDS011;59497;48.798;8.816;2023-07-24T09:10:56;9.47;;;5.20;;
71655;SDS011;59497;48.798;8.816;2023-07-24T09:13:21;8.43;;;5.17;;
71655;SDS011;59497;48.798;8.816;2023-07-24T09:15:46;7.43;;;5.00;;
71655;SDS011;59497;48.798;8.816;2023-07-24T09:18:12;8.20;;;4.78;;
71655;SDS011;59497;48.798;8.816;2023-07-24T09:20:41;7.97;;;5.10;;
71655;SDS011;59497;48.798;8.816;2023-07-24T09:23:06;9.35;;;5.63;;
71655;SDS011;59497;48.798;8.816;2023-07-24T09:25:32;9.27;;;5.67;;
71655;SDS011;59497;48.798;8.816;2023-07-24T09:27:58;8.75;;;5.00;;
71655;SDS011;59497;48.798;8.816;2023-07-24T09:30:23;7.13;;;4.53;;
71655;SDS011;59497;48.798;8.816;2023-07-24T09:32:54;7.43;;;4.97;;
71655;SDS011;59497;48.798;8.816;2023-07-24T09:35:20;8.45;;;5.13;;
71655;SDS011;59497;48.798;8.816;2023-07-24T09:37:47;7.73;;;5.63;;
71655;SDS011;59497;48.798;8.816;2023-07-24T09:40:14;8.98;;;5.45;;
71655;SDS011;59497;48.798;8.816;2023-07-24T09:42:39;8.27;;;5.73;;
71655;SDS011;59497;48.798;8.816;2023-07-24T09:45:05;11.20;;;6.23;;
71655;SDS011;59497;48.798;8.816;2023-07-24T09:47:30;9.45;;;5.22;;
71655;SDS011;59497;48.798;8.816;2023-07-24T09:49:56;6.40;;;4.57;;
71655;SDS011;59497;48.798;8.816;2023-07-24T09:52:21;7.67;;;5.40;;
71655;SDS011;59497;48.798;8.816;2023-07-24T09:55:01;9.88;;;4.93;;
71655;SDS011;59497;48.798;8.816;2023-07-24T09:57:29;9.25;;;5.53;;
71655;SDS011;59497;48.798;8.816;2023-07-24T09:59:56;7.90;;;5.37;;
71655;SDS011;59497;48.798;8.816;2023-07-24T10:02:21;8.45;;;4.78;;
71655;SDS011;59497;48.798;8.816;2023-07-24T10:04:47;9.05;;;5.35;;
71655;SDS011;59497;48.798;8.816;2023-07-24T10:07:13;10.60;;;5.10;;
71655;SDS011;59497;48.798;8.816;2023-07-24T10:09:38;8.50;;;5.23;;
71655;SDS011;59497;48.798;8.816;2023-07-24T10:12:04;9.23;;;5.63;;
71655;SDS011;59497;48.798;8.816;2023-07-24T10:14:29;8.93;;;5.53;;
71655;SDS011;59497;48.798;8.816;2023-07-24T10:16:55;8.93;;;5.40;;
71655;SDS011;59497;48.798;8.816;2023-07-24T10:19:21;8.40;;;5.07;;
71655;SDS011;59497;48.798;8.816;2023-07-24T10:21:46;7.77;;;5.00;;
71655;SDS011;59497;48.798;8.816;2023-07-24T10:24:12;9.18;;;4.93;;
71655;SDS011;59497;48.798;8.816;2023-07-24T10:26:37;7.93;;;4.80;;
71655;SDS011;59497;48.798;8.816;2023-07-24T10:29:02;8.40;;;5.17;;
71655;SDS011;59497;48.798;8.816;2023-07-24T10:31:28;7.03;;;4.87;;
71655;SDS011;59497;48.798;8.816;2023-07-24T10:33:53;8.50;;;5.23;;
71655;SDS011;59497;48.798;8.816;2023-07-24T10:36:20;6.85;;;4.32;;
71655;SDS011;59497;48.798;8.816;2023-07-24T10:38:51;8.60;;;4.57;;
71655;SDS011;59497;48.798;8.816;2023-07-24T10:41:16;7.95;;;4.57;;
71655;SDS011;59497;48.798;8.816;2023-07-24T10:43:45;9.25;;;4.80;;
71655;SDS011;59497;48.798;8.816;2023-07-24T10:46:11;10.20;;;5.37;;
71655;SDS011;59497;48.798;8.816;2023-07-24T10:48:37;9.70;;;4.70;;
71655;SDS011;59497;48.798;8.816;2023-07-24T10:51:06;9.45;;;5.43;;
71655;SDS011;59497;48.798;8.816;2023-07-24T10:53:34;8.93;;;4.83;;
71655;SDS011;59497;48.798;8.816;2023-07-24T10:55:59;10.68;;;4.90;;
71655;SDS011;59497;48.798;8.816;2023-07-24T10:58:25;7.77;;;4.83;;
71655;SDS011;59497;48.798;8.816;2023-07-24T11:00:50;9.82;;;4.90;;
71655;SDS011;59497;48.798;8.816;2023-07-24T11:03:16;9.57;;;5.10;;
71655;SDS011;59497;48.798;8.816;2023-07-24T11:05:42;8.00;;;4.75;;
71655;SDS011;59497;48.798;8.816;2023-07-24T11:08:08;8.03;;;4.33;;
71655;SDS011;59497;48.798;8.816;2023-07-24T11:10:33;8.13;;;5.82;;
71655;SDS011;59497;48.798;8.816;2023-07-24T11:12:59;10.23;;;5.13;;
71655;SDS011;59497;48.798;8.816;2023-07-24T11:15:24;7.97;;;4.67;;
71655;SDS011;59497;48.798;8.816;2023-07-24T11:17:52;8.95;;;4.72;;
71655;SDS011;59497;48.798;8.816;2023-07-24T11:20:18;8.17;;;5.00;;
71655;SDS011;59497;48.798;8.816;2023-07-24T11:22:43;6.87;;;4.47;;
71655;SDS011;59497;48.798;8.816;2023-07-24T11:25:09;9.57;;;4.97;;
71655;SDS011;59497;48.798;8.816;2023-07-24T11:27:38;7.80;;;4.67;;
71655;SDS011;59497;48.798;8.816;2023-07-24T11:30:04;8.25;;;4.93;;
71655;SDS011;59497;48.798;8.816;2023-07-24T11:32:30;6.78;;;4.13;;
71655;SDS011;59497;48.798;8.816;2023-07-24T11:34:55;8.10;;;4.67;;
71655;SDS011;59497;48.798;8.816;2023-07-24T11:37:20;10.63;;;4.73;;
71655;SDS011;59497;48.798;8.816;2023-07-24T11:39:55;6.63;;;4.30;;
71655;SDS011;59497;48.798;8.816;2023-07-24T11:42:20;6.27;;;4.50;;
71655;SDS011;59497;48.798;8.816;2023-07-24T11:44:46;7.37;;;4.80;;
71655;SDS011;59497;48.798;8.816;2023-07-24T11:47:11;8.63;;;4.87;;
71655;SDS011;59497;48.798;8.816;2023-07-24T11:49:36;8.27;;;4.27;;
71655;SDS011;59497;48.798;8.816;2023-07-24T11:52:05;6.45;;;4.68;;
71655;SDS011;59497;48.798;8.816;2023-07-24T11:54:33;5.47;;;3.72;;
71655;SDS011;59497;48.798;8.816;2023-07-24T11:56:58;8.13;;;4.32;;
71655;SDS011;59497;48.798;8.816;2023-07-24T11:59:24;6.13;;;4.17;;
71655;SDS011;59497;48.798;8.816;2023-07-24T12:01:49;7.07;;;4.20;;
71655;SDS011;59497;48.798;8.816;2023-07-24T12:04:14;6.07;;;4.50;;
71655;SDS011;59497;48.798;8.816;2023-07-24T12:06:40;6.65;;;4.20;;
71655;SDS011;59497;48.798;8.816;2023-07-24T12:09:05;6.47;;;4.10;;
71655;SDS011;59497;48.798;8.816;2023-07-24T12:11:31;7.93;;;4.13;;
71655;SDS011;59497;48.798;8.816;2023-07-24T12:13:57;7.10;;;4.30;;
71655;SDS011;59497;48.798;8.816;2023-07-24T12:16:22;7.57;;;4.00;;
71655;SDS011;59497;48.798;8.816;2023-07-24T12:18:47;5.47;;;4.27;;
71655;SDS011;59497;48.798;8.816;2023-07-24T12:21:13;8.80;;;4.27;;
71655;SDS011;59497;48.798;8.816;2023-07-24T12:23:38;7.10;;;3.83;;
71655;SDS011;59497;48.798;8.816;2023-07-24T12:26:03;7.70;;;3.90;;
71655;SDS011;59497;48.798;8.816;2023-07-24T12:28:29;6.47;;;4.03;;
71655;SDS011;59497;48.798;8.816;2023-07-24T12:30:54;5.67;;;3.70;;
71655;SDS011;59497;48.798;8.816;2023-07-24T12:33:19;6.40;;;3.67;;
71655;SDS011;59497;48.798;8.816;2023-07-24T12:35:48;5.65;;;3.75;;
71655;SDS011;59497;48.798;8.816;2023-07-24T12:38:13;5.23;;;3.80;;
71655;SDS011;59497;48.798;8.816;2023-07-24T12:40:38;7.00;;;3.63;;
71655;SDS011;59497;48.798;8.816;2023-07-24T12:43:04;5.00;;;3.60;;
71655;SDS011;59497;48.798;8.816;2023-07-24T12:45:29;6.47;;;4.07;;
71655;SDS011;59497;48.798;8.816;2023-07-24T12:47:54;7.77;;;4.33;;
71655;SDS011;59497;48.798;8.816;2023-07-24T12:50:20;6.18;;;3.90;;
71655;SDS011;59497;48.798;8.816;2023-07-24T12:52:45;7.40;;;3.87;;
71655;SDS011;59497;48.798;8.816;2023-07-24T12:55:10;5.70;;;3.57;;
71655;SDS011;59497;48.798;8.816;2023-07-24T12:57:36;6.00;;;4.10;;
71655;SDS011;59497;48.798;8.816;2023-07-24T13:00:01;6.20;;;3.63;;
71655;SDS011;59497;48.798;8.816;2023-07-24T13:02:26;6.70;;;3.80;;
71655;SDS011;59497;48.798;8.816;2023-07-24T13:04:52;5.87;;;3.60;;
71655;SDS011;59497;48.798;8.816;2023-07-24T13:07:17;6.83;;;3.90;;
71655;SDS011;59497;48.798;8.816;2023-07-24T13:09:42;5.73;;;3.83;;
71655;SDS011;59497;48.798;8.816;2023-07-24T13:12:08;6.30;;;3.60;;
71655;SDS011;59497;48.798;8.816;2023-07-24T13:14:33;5.67;;;4.20;;
71655;SDS011;59497;48.798;8.816;2023-07-24T13:16:58;5.93;;;4.57;;
71655;SDS011;59497;48.798;8.816;2023-07-24T13:19:24;6.10;;;4.30;;
71655;SDS011;59497;48.798;8.816;2023-07-24T13:21:49;7.90;;;3.93;;
71655;SDS011;59497;48.798;8.816;2023-07-24T13:24:14;6.07;;;4.10;;
71655;SDS011;59497;48.798;8.816;2023-07-24T13:26:39;5.80;;;3.80;;
71655;SDS011;59497;48.798;8.816;2023-07-24T13:29:05;6.47;;;4.28;;
71655;SDS011;59497;48.798;8.816;2023-07-24T13:31:30;5.50;;;3.73;;
71655;SDS011;59497;48.798;8.816;2023-07-24T13:33:55;5.63;;;3.80;;
71655;SDS011;59497;48.798;8.816;2023-07-24T13:36:21;6.47;;;4.30;;
71655;SDS011;59497;48.798;8.816;2023-07-24T13:38:46;4.73;;;3.70;;
71655;SDS011;59497;48.798;8.816;2023-07-24T13:41:11;5.33;;;3.50;;
71655;SDS011;59497;48.798;8.816;2023-07-24T13:43:36;6.17;;;4.37;;
71655;SDS011;59497;48.798;8.816;2023-07-24T13:46:01;5.17;;;3.73;;
71655;SDS011;59497;48.798;8.816;2023-07-24T13:48:32;6.90;;;5.00;;
71655;SDS011;59497;48.798;8.816;2023-07-24T13:50:57;6.23;;;4.77;;
71655;SDS011;59497;48.798;8.816;2023-07-24T13:53:22;5.87;;;4.10;;
71655;SDS011;59497;48.798;8.816;2023-07-24T13:55:48;5.90;;;4.33;;
71655;SDS011;59497;48.798;8.816;2023-07-24T13:58:13;6.67;;;4.57;;
71655;SDS011;59497;48.798;8.816;2023-07-24T14:00:38;6.80;;;4.30;;
71655;SDS011;59497;48.798;8.816;2023-07-24T14:03:03;6.23;;;4.33;;
71655;SDS011;59497;48.798;8.816;2023-07-24T14:05:28;4.57;;;3.50;;
71655;SDS011;59497;48.798;8.816;2023-07-24T14:07:54;6.97;;;4.38;;
71655;SDS011;59497;48.798;8.816;2023-07-24T14:10:19;5.20;;;4.33;;
71655;SDS011;59497;48.798;8.816;2023-07-24T14:12:44;4.90;;;4.10;;
71655;SDS011;59497;48.798;8.816;2023-07-24T14:15:09;4.57;;;3.40;;
71655;SDS011;59497;48.798;8.816;2023-07-24T14:17:35;5.07;;;3.40;;
71655;SDS011;59497;48.798;8.816;2023-07-24T14:20:01;7.37;;;3.97;;
71655;SDS011;59497;48.798;8.816;2023-07-24T14:22:26;5.73;;;3.70;;
71655;SDS011;59497;48.798;8.816;2023-07-24T14:24:51;5.40;;;3.60;;
71655;SDS011;59497;48.798;8.816;2023-07-24T14:27:16;5.07;;;3.17;;
71655;SDS011;59497;48.798;8.816;2023-07-24T14:29:41;4.73;;;3.83;;
71655;SDS011;59497;48.798;8.816;2023-07-24T14:32:07;5.55;;;3.67;;
71655;SDS011;59497;48.798;8.816;2023-07-24T14:34:32;5.07;;;4.00;;
71655;SDS011;59497;48.798;8.816;2023-07-24T14:36:57;5.13;;;3.97;;
71655;SDS011;59497;48.798;8.816;2023-07-24T14:39:22;5.07;;;3.60;;